createdAt,value
2023-10-21T00:02:04.204Z,100.00
2023-10-21T00:04:35.453Z,100.00
2023-10-21T00:07:04.455Z,100.00
2023-10-21T00:09:33.270Z,100.00
2023-10-21T00:12:02.141Z,100.00
2023-10-21T00:14:31.963Z,100.00
2023-10-21T00:17:01.035Z,99.90
2023-10-21T00:19:29.741Z,98.79
2023-10-21T00:22:00.207Z,98.57
2023-10-21T00:24:28.901Z,98.17
2023-10-21T00:26:57.657Z,98.99
2023-10-21T00:29:26.356Z,100.00
2023-10-21T00:31:55.193Z,100.00
2023-10-21T00:34:24.880Z,100.00
2023-10-21T00:36:53.498Z,99.14
2023-10-21T00:39:23.631Z,98.60
2023-10-21T00:41:52.471Z,100.00
2023-10-21T00:44:23.772Z,99.00
2023-10-21T00:46:52.619Z,98.50
2023-10-21T00:49:22.798Z,98.17
2023-10-21T00:51:52.697Z,98.21
2023-10-21T00:54:24.077Z,98.21
2023-10-21T00:56:53.534Z,98.04
2023-10-21T00:59:23.167Z,98.34
2023-10-21T01:01:53.441Z,98.93
2023-10-21T01:04:24.355Z,98.43
2023-10-21T01:06:55.185Z,97.99
2023-10-21T01:09:27.681Z,97.43
2023-10-21T01:11:56.540Z,97.75
2023-10-21T01:14:26.297Z,99.04
2023-10-21T01:16:55.010Z,99.51
2023-10-21T01:19:23.747Z,99.58
2023-10-21T01:21:52.410Z,99.25
2023-10-21T01:24:22.499Z,98.86
2023-10-21T01:26:51.218Z,98.65
2023-10-21T01:29:20.045Z,99.44
2023-10-21T01:31:49.780Z,99.39
2023-10-21T01:34:19.678Z,99.54
2023-10-21T01:36:49.638Z,99.20
2023-10-21T01:39:20.512Z,98.83
2023-10-21T01:41:50.866Z,98.97
2023-10-21T01:44:20.625Z,98.76
2023-10-21T01:46:49.364Z,98.46
2023-10-21T01:49:18.098Z,98.68
2023-10-21T01:51:46.743Z,99.10
2023-10-21T01:54:15.510Z,99.00
2023-10-21T01:56:44.217Z,99.19
2023-10-21T01:59:15.928Z,99.19
2023-10-21T02:01:44.770Z,99.59
2023-10-21T02:04:13.533Z,99.12
2023-10-21T02:06:42.231Z,98.84
2023-10-21T02:09:11.143Z,99.44
2023-10-21T02:11:39.816Z,99.67
2023-10-21T02:14:08.487Z,99.59
2023-10-21T02:16:38.555Z,99.09
2023-10-21T02:19:07.305Z,99.23
2023-10-21T02:21:36.064Z,98.92
2023-10-21T02:24:05.205Z,99.15
2023-10-21T02:26:33.953Z,99.33
2023-10-21T02:29:02.765Z,99.54
2023-10-21T02:31:31.655Z,100.00
2023-10-21T02:34:01.795Z,100.00
2023-10-21T02:36:30.429Z,100.00
2023-10-21T02:38:59.125Z,100.00
2023-10-21T02:41:27.850Z,100.00
2023-10-21T02:43:56.501Z,99.61
2023-10-21T02:46:25.142Z,99.56
2023-10-21T02:48:53.791Z,99.65
2023-10-21T02:51:24.134Z,99.96
2023-10-21T02:53:53.010Z,100.00
2023-10-21T02:56:21.820Z,99.72
2023-10-21T02:58:50.638Z,99.77
2023-10-21T03:01:22.107Z,99.30
2023-10-21T03:03:52.399Z,99.44
2023-10-21T03:06:24.049Z,99.15
2023-10-21T03:08:53.753Z,98.51
2023-10-21T03:11:22.482Z,98.08
2023-10-21T03:13:51.419Z,98.13
2023-10-21T03:16:20.176Z,97.88
2023-10-21T03:18:48.902Z,98.08
2023-10-21T03:21:17.592Z,97.67
2023-10-21T03:23:47.735Z,97.78
2023-10-21T03:26:16.665Z,97.22
2023-10-21T03:28:45.949Z,96.88
2023-10-21T03:31:14.750Z,97.00
2023-10-21T03:33:43.457Z,96.84
2023-10-21T03:36:13.525Z,96.44
2023-10-21T03:38:44.752Z,96.18
2023-10-21T03:41:15.940Z,96.44
2023-10-21T03:43:44.661Z,95.83
2023-10-21T03:46:15.990Z,96.15
2023-10-21T03:48:45.241Z,96.07
2023-10-21T03:51:14.735Z,96.09
2023-10-21T03:53:44.702Z,95.95
2023-10-21T03:56:14.926Z,95.84
2023-10-21T03:58:44.011Z,95.98
2023-10-21T04:01:12.705Z,95.72
2023-10-21T04:03:41.838Z,95.76
2023-10-21T04:06:11.283Z,95.93
2023-10-21T04:08:40.000Z,96.05
2023-10-21T04:11:09.543Z,95.65
2023-10-21T04:13:39.674Z,95.69
2023-10-21T04:16:08.545Z,95.98
2023-10-21T04:18:37.558Z,95.87
2023-10-21T04:21:06.983Z,95.91
2023-10-21T04:23:35.820Z,95.15
2023-10-21T04:26:07.117Z,95.39
2023-10-21T04:28:38.439Z,95.16
2023-10-21T04:31:07.612Z,95.48
2023-10-21T04:33:36.465Z,95.29
2023-10-21T04:36:05.616Z,95.25
2023-10-21T04:38:34.275Z,95.00
2023-10-21T04:41:03.928Z,94.70
2023-10-21T04:43:32.752Z,94.88
2023-10-21T04:46:03.235Z,94.56
2023-10-21T04:48:32.102Z,94.64
2023-10-21T04:51:00.950Z,94.41
2023-10-21T04:53:29.693Z,94.08
2023-10-21T04:55:58.666Z,94.50
2023-10-21T04:58:28.901Z,94.57
2023-10-21T05:00:57.752Z,94.96
2023-10-21T05:03:27.962Z,94.48
2023-10-21T05:05:56.763Z,94.34
2023-10-21T05:08:25.688Z,94.69
2023-10-21T05:10:56.323Z,94.45
2023-10-21T05:13:25.053Z,94.27
2023-10-21T05:15:53.761Z,94.23
2023-10-21T05:18:22.899Z,94.91
2023-10-21T05:20:54.198Z,94.85
2023-10-21T05:23:23.517Z,94.59
2023-10-21T05:25:53.978Z,94.74
2023-10-21T05:28:22.785Z,95.09
2023-10-21T05:30:51.741Z,94.29
2023-10-21T05:33:20.827Z,93.97
2023-10-21T05:35:49.695Z,94.31
2023-10-21T05:38:20.078Z,94.17
2023-10-21T05:40:48.832Z,94.02
2023-10-21T05:43:17.970Z,94.53
2023-10-21T05:45:47.073Z,93.87
2023-10-21T05:48:15.988Z,93.99
2023-10-21T05:50:44.736Z,94.20
2023-10-21T05:53:13.370Z,93.93
2023-10-21T05:55:49.578Z,94.22
2023-10-21T05:58:18.405Z,94.33
2023-10-21T06:00:47.123Z,94.26
2023-10-21T06:03:16.016Z,93.99
2023-10-21T06:05:44.829Z,94.17
2023-10-21T06:08:39.948Z,94.75
2023-10-21T06:11:13.697Z,94.62
2023-10-21T06:13:42.961Z,94.52
2023-10-21T06:16:11.743Z,94.25
2023-10-21T06:18:41.816Z,94.42
2023-10-21T06:21:12.992Z,94.54
2023-10-21T06:23:43.570Z,94.81
2023-10-21T06:26:16.627Z,94.71
2023-10-21T06:28:47.193Z,95.08
2023-10-21T06:31:16.786Z,95.34
2023-10-21T06:33:45.807Z,95.33
2023-10-21T06:36:14.686Z,95.47
2023-10-21T06:38:45.414Z,95.60
2023-10-21T06:41:17.353Z,95.52
2023-10-21T06:43:46.258Z,96.28
2023-10-21T06:46:15.555Z,96.08
2023-10-21T06:48:44.632Z,96.52
2023-10-21T06:51:14.559Z,96.50
2023-10-21T06:53:44.933Z,96.37
2023-10-21T06:56:15.755Z,96.30
2023-10-21T06:58:48.484Z,96.19
2023-10-21T07:01:22.364Z,96.27
2023-10-21T07:03:54.111Z,96.16
2023-10-21T07:06:40.961Z,95.92
2023-10-21T07:09:10.433Z,96.78
2023-10-21T07:11:43.622Z,97.27
2023-10-21T07:14:14.318Z,97.53
2023-10-21T07:16:43.485Z,97.67
2023-10-21T07:19:13.509Z,97.92
2023-10-21T07:21:43.346Z,98.16
2023-10-21T07:24:13.442Z,98.15
2023-10-21T07:26:44.323Z,98.65
2023-10-21T07:29:13.204Z,98.97
2023-10-21T07:31:44.298Z,99.39
2023-10-21T07:34:13.179Z,99.82
2023-10-21T07:36:46.113Z,99.58
2023-10-21T07:39:14.809Z,99.90
2023-10-21T07:41:45.408Z,100.00
2023-10-21T07:44:15.782Z,100.00
2023-10-21T07:46:46.696Z,100.00
2023-10-21T07:49:15.313Z,100.00
2023-10-21T07:51:43.970Z,100.00
2023-10-21T07:54:13.306Z,100.00
2023-10-21T07:56:41.996Z,100.00
2023-10-21T07:59:12.510Z,100.00
2023-10-21T08:01:41.373Z,100.00
2023-10-21T08:04:10.132Z,100.00
2023-10-21T08:06:39.817Z,100.00
2023-10-21T08:09:09.549Z,100.00
2023-10-21T08:11:38.332Z,100.00
2023-10-21T08:14:07.037Z,100.00
2023-10-21T08:16:37.317Z,100.00
2023-10-21T08:19:06.440Z,100.00
2023-10-21T08:21:44.584Z,100.00
2023-10-21T08:24:13.469Z,100.00
2023-10-21T08:26:42.150Z,100.00
2023-10-21T08:29:11.483Z,100.00
2023-10-21T08:31:42.461Z,100.00
2023-10-21T08:34:14.284Z,100.00
2023-10-21T08:36:43.685Z,100.00
2023-10-21T08:39:12.525Z,100.00
2023-10-21T08:41:42.602Z,100.00
2023-10-21T08:44:14.578Z,100.00
2023-10-21T08:46:45.615Z,100.00
2023-10-21T08:49:18.056Z,100.00
2023-10-21T08:51:48.865Z,100.00
2023-10-21T08:54:19.821Z,100.00
2023-10-21T08:56:48.888Z,100.00
2023-10-21T08:59:17.640Z,99.97
2023-10-21T09:01:50.139Z,98.31
2023-10-21T09:04:23.717Z,93.91
2023-10-21T09:06:57.227Z,93.90
2023-10-21T09:09:28.262Z,93.63
2023-10-21T09:12:11.429Z,90.44
2023-10-21T09:14:56.759Z,89.13
2023-10-21T09:17:36.929Z,87.18
2023-10-21T09:20:10.725Z,87.69
2023-10-21T09:22:40.763Z,86.79
2023-10-21T09:25:18.013Z,86.77
2023-10-21T09:27:47.725Z,85.74
2023-10-21T09:30:18.741Z,84.20
2023-10-21T09:32:50.600Z,83.57
2023-10-21T09:35:24.961Z,83.44
2023-10-21T09:37:54.098Z,80.97
2023-10-21T09:40:25.765Z,79.44
2023-10-21T09:42:56.274Z,78.61
2023-10-21T09:45:28.254Z,77.49
2023-10-21T09:48:06.658Z,75.62
2023-10-21T09:50:40.094Z,75.67
2023-10-21T09:53:16.277Z,75.23
2023-10-21T09:55:46.039Z,75.56
2023-10-21T09:58:17.840Z,76.88
2023-10-21T10:00:47.517Z,77.81
2023-10-21T10:03:19.379Z,76.96
2023-10-21T10:05:50.146Z,78.40
2023-10-21T10:08:19.016Z,79.62
2023-10-21T10:10:51.015Z,81.89
2023-10-21T10:13:20.968Z,83.33
2023-10-21T10:15:49.695Z,85.55
2023-10-21T10:18:23.423Z,85.00
2023-10-21T10:20:54.737Z,82.28
2023-10-21T10:23:27.761Z,81.19
2023-10-21T10:25:59.305Z,82.96
2023-10-21T10:28:29.412Z,84.08
2023-10-21T10:30:59.172Z,84.92
2023-10-21T10:33:32.558Z,84.92
2023-10-21T10:36:07.502Z,86.71
2023-10-21T10:38:47.050Z,86.76
2023-10-21T10:41:17.282Z,86.86
2023-10-21T10:43:48.615Z,87.10
2023-10-21T10:46:19.523Z,87.39
2023-10-21T10:48:50.046Z,87.82
2023-10-21T10:51:20.814Z,88.58
2023-10-21T10:53:58.065Z,84.14
2023-10-21T10:56:28.023Z,84.09
2023-10-21T10:58:57.124Z,84.29
2023-10-21T11:01:27.879Z,85.91
2023-10-21T11:04:00.265Z,84.58
2023-10-21T11:06:33.324Z,83.12
2023-10-21T11:09:02.604Z,77.05
2023-10-21T11:11:31.317Z,78.03
2023-10-21T11:14:00.386Z,81.18
2023-10-21T11:16:29.402Z,83.09
2023-10-21T11:19:01.904Z,83.82
2023-10-21T11:21:40.812Z,83.74
2023-10-21T11:24:12.066Z,85.19
2023-10-21T11:26:42.761Z,85.24
2023-10-21T11:29:12.124Z,85.06
2023-10-21T11:31:40.921Z,85.78
2023-10-21T11:34:15.691Z,86.70
2023-10-21T11:36:47.631Z,86.80
2023-10-21T11:39:18.369Z,86.86
2023-10-21T11:41:48.378Z,87.34
2023-10-21T11:44:20.517Z,87.58
2023-10-21T11:46:49.286Z,87.68
2023-10-21T11:49:20.476Z,86.13
2023-10-21T11:51:50.891Z,85.67
2023-10-21T11:54:34.261Z,86.55
2023-10-21T11:57:17.838Z,86.94
2023-10-21T12:00:03.782Z,87.18
2023-10-21T12:02:56.523Z,85.53
2023-10-21T12:05:40.580Z,84.81
2023-10-21T12:08:29.278Z,85.26
2023-10-21T12:11:19.683Z,86.08
2023-10-21T12:14:05.151Z,86.76
2023-10-21T12:17:07.903Z,87.50
2023-10-21T12:19:57.923Z,86.69
2023-10-21T12:22:36.082Z,87.11
2023-10-21T12:25:29.097Z,87.31
2023-10-21T12:28:17.915Z,87.72
2023-10-21T12:31:07.855Z,87.77
2023-10-21T12:33:54.891Z,85.71
2023-10-21T12:44:26.771Z,84.98
2023-10-21T12:47:06.614Z,86.36
2023-10-21T12:49:51.846Z,85.81
2023-10-21T12:52:20.961Z,85.93
2023-10-21T12:54:49.934Z,86.20
2023-10-21T12:57:28.774Z,86.17
2023-10-21T13:00:03.083Z,86.75
2023-10-21T13:02:37.305Z,88.64
2023-10-21T13:05:09.179Z,88.19
2023-10-21T13:07:40.391Z,84.52
2023-10-21T13:10:11.056Z,86.73
2023-10-21T13:12:40.701Z,87.03
2023-10-21T13:15:13.120Z,86.54
2023-10-21T13:17:42.579Z,87.20
2023-10-21T13:20:17.699Z,88.27
2023-10-21T13:22:49.109Z,88.22
2023-10-21T13:25:24.623Z,88.57
2023-10-21T13:27:57.142Z,88.85
2023-10-21T13:30:29.132Z,89.88
2023-10-21T13:32:58.653Z,90.00
2023-10-21T13:35:28.681Z,89.49
2023-10-21T13:39:34.714Z,89.57
2023-10-21T13:42:10.646Z,90.85
2023-10-21T13:44:43.209Z,91.06
2023-10-21T13:47:16.312Z,90.97
2023-10-21T13:49:45.369Z,90.76
2023-10-21T13:52:15.031Z,90.75
2023-10-21T13:54:44.849Z,90.71
2023-10-21T13:57:15.857Z,90.75
2023-10-21T13:59:48.914Z,90.72
2023-10-21T14:02:20.340Z,90.74
2023-10-21T14:04:50.064Z,90.49
2023-10-21T14:07:18.896Z,90.82
2023-10-21T14:09:59.801Z,91.01
2023-10-21T14:12:28.657Z,90.61
2023-10-21T14:15:06.886Z,90.85
2023-10-21T14:17:38.225Z,91.06
2023-10-21T14:20:11.984Z,91.49
2023-10-21T14:22:40.874Z,92.26
2023-10-21T14:25:11.426Z,91.97
2023-10-21T14:29:20.716Z,92.42
2023-10-21T14:31:55.242Z,92.24
2023-10-21T14:34:26.525Z,92.78
2023-10-21T14:36:55.526Z,93.01
2023-10-21T14:39:24.567Z,93.36
2023-10-21T14:42:22.356Z,94.14
2023-10-21T14:44:55.012Z,94.09
2023-10-21T14:47:27.394Z,94.73
2023-10-21T14:49:59.281Z,94.90
2023-10-21T14:52:28.936Z,94.79
2023-10-21T14:55:06.846Z,94.96
2023-10-21T14:58:06.769Z,95.62
2023-10-21T15:00:35.973Z,95.43
2023-10-21T15:04:33.063Z,96.57
2023-10-21T15:07:03.254Z,96.61
2023-10-21T15:09:33.526Z,96.56
2023-10-21T15:12:02.630Z,96.53
2023-10-21T15:14:46.960Z,96.53
2023-10-21T15:17:26.627Z,96.78
2023-10-21T15:20:01.805Z,96.63
2023-10-21T15:22:33.997Z,96.96
2023-10-21T15:25:24.249Z,97.77
2023-10-21T15:27:54.332Z,97.05
2023-10-21T15:30:25.204Z,97.34
2023-10-21T15:32:58.351Z,97.26
2023-10-21T15:35:33.096Z,97.18
2023-10-21T15:38:08.823Z,97.31
2023-10-21T15:40:39.976Z,97.08
2023-10-21T15:43:13.516Z,97.35
2023-10-21T15:45:47.359Z,98.21
2023-10-21T15:48:19.113Z,97.65
2023-10-21T15:50:47.833Z,97.63
2023-10-21T15:53:20.101Z,97.45
2023-10-21T15:55:48.782Z,96.90
2023-10-21T15:58:17.463Z,97.38
2023-10-21T16:00:46.299Z,97.89
2023-10-21T16:03:15.254Z,98.01
2023-10-21T16:05:43.977Z,97.53
2023-10-21T16:08:16.129Z,97.21
2023-10-21T16:10:49.199Z,96.66
2023-10-21T16:13:18.052Z,96.35
2023-10-21T16:15:57.531Z,96.48
2023-10-21T16:18:27.155Z,96.80
2023-10-21T16:20:56.492Z,96.83
2023-10-21T16:23:27.981Z,97.01
2023-10-21T16:26:05.088Z,96.40
2023-10-21T16:28:42.336Z,96.26
2023-10-21T16:31:11.616Z,96.27
2023-10-21T16:33:56.395Z,96.55
2023-10-21T16:36:29.291Z,96.50
2023-10-21T16:38:59.821Z,96.52
2023-10-21T16:41:30.595Z,96.38
2023-10-21T16:44:03.419Z,95.52
2023-10-21T16:46:32.491Z,95.33
2023-10-21T16:49:04.241Z,95.49
2023-10-21T16:51:34.256Z,95.39
2023-10-21T16:54:08.598Z,95.25
2023-10-21T16:56:45.349Z,95.72
2023-10-21T16:59:15.306Z,95.85
2023-10-21T17:01:44.413Z,95.24
2023-10-21T17:04:17.502Z,95.14
2023-10-21T17:10:45.384Z,93.57
2023-10-21T17:13:19.726Z,93.39
2023-10-21T17:15:49.001Z,92.71
2023-10-21T17:18:17.856Z,93.11
2023-10-21T17:20:59.856Z,93.23
2023-10-21T17:23:28.555Z,93.57
2023-10-21T17:25:57.240Z,93.34
2023-10-21T17:28:28.460Z,92.88
2023-10-21T17:30:57.322Z,92.52
2023-10-21T17:33:36.273Z,92.55
2023-10-21T17:36:13.128Z,92.38
2023-10-21T17:38:42.010Z,92.60
2023-10-21T17:41:10.917Z,92.10
2023-10-21T17:43:41.042Z,92.54
2023-10-21T17:46:09.950Z,92.66
2023-10-21T17:48:38.824Z,92.83
2023-10-21T17:51:07.727Z,93.08
2023-10-21T17:53:36.417Z,92.68
2023-10-21T17:56:05.583Z,92.79
2023-10-21T17:58:33.349Z,92.98
2023-10-21T18:01:05.953Z,93.19
2023-10-21T18:03:35.241Z,93.49
2023-10-21T18:06:06.116Z,93.46
2023-10-21T18:08:34.893Z,93.24
2023-10-21T18:11:05.698Z,93.12
2023-10-21T18:13:34.895Z,93.10
2023-10-21T18:16:05.276Z,92.92
2023-10-21T18:18:34.032Z,93.69
2023-10-21T18:21:02.964Z,93.82
2023-10-21T18:23:31.661Z,93.72
2023-10-21T18:26:01.876Z,93.86
2023-10-21T18:28:31.206Z,93.53
2023-10-21T18:31:00.346Z,93.80
2023-10-21T18:33:31.989Z,94.16
2023-10-21T18:36:01.477Z,94.32
2023-10-21T18:38:30.429Z,94.40
2023-10-21T18:40:59.390Z,94.24
2023-10-21T18:43:28.255Z,94.40
2023-10-21T18:45:58.101Z,94.60
2023-10-21T18:48:27.106Z,94.85
2023-10-21T18:51:01.659Z,95.00
2023-10-21T18:53:30.700Z,94.72
2023-10-21T18:55:59.466Z,94.32
2023-10-21T18:58:28.354Z,94.21
2023-10-21T19:01:00.702Z,94.01
2023-10-21T19:03:29.526Z,94.15
2023-10-21T19:05:59.713Z,94.54
2023-10-21T19:08:28.841Z,94.49
2023-10-21T19:10:57.637Z,94.65
2023-10-21T19:13:30.255Z,94.81
2023-10-21T19:15:59.672Z,94.84
2023-10-21T19:18:28.900Z,95.03
2023-10-21T19:21:05.476Z,94.93
2023-10-21T19:23:35.594Z,94.80
2023-10-21T19:26:05.970Z,94.71
2023-10-21T19:28:34.916Z,94.64
2023-10-21T19:31:11.034Z,94.65
2023-10-21T19:33:40.098Z,94.89
2023-10-21T19:36:12.381Z,94.77
2023-10-21T19:38:41.405Z,94.63
2023-10-21T19:41:13.148Z,94.95
2023-10-21T19:43:42.904Z,95.49
2023-10-21T19:46:11.771Z,95.80
2023-10-21T19:48:41.087Z,95.72
2023-10-21T19:51:12.311Z,95.31
2023-10-21T19:53:41.276Z,94.98
2023-10-21T19:56:10.506Z,95.07
2023-10-21T19:58:39.562Z,95.42
2023-10-21T20:01:10.965Z,95.02
2023-10-21T20:03:41.531Z,95.42
2023-10-21T20:06:11.983Z,95.38
2023-10-21T20:08:40.934Z,95.29
2023-10-21T20:11:12.235Z,95.32
2023-10-21T20:13:42.561Z,95.27
2023-10-21T20:16:14.205Z,95.30
2023-10-21T20:18:46.314Z,95.28
2023-10-21T20:21:18.372Z,95.75
2023-10-21T20:23:47.209Z,95.80
2023-10-21T20:26:16.808Z,96.01
2023-10-21T20:28:46.647Z,96.22
2023-10-21T20:31:15.822Z,96.03
2023-10-21T20:33:44.957Z,95.94
2023-10-21T20:36:15.146Z,96.04
2023-10-21T20:38:46.759Z,96.15
2023-10-21T20:41:18.227Z,96.59
2023-10-21T20:43:48.573Z,96.50
2023-10-21T20:46:17.789Z,96.20
2023-10-21T20:48:47.494Z,96.50
2023-10-21T20:51:17.010Z,96.81
2023-10-21T20:53:47.740Z,96.65
2023-10-21T20:56:22.167Z,96.51
2023-10-21T20:58:51.535Z,96.45
2023-10-21T21:01:30.935Z,96.67
2023-10-21T21:04:07.585Z,96.51
2023-10-21T21:06:39.955Z,96.36
2023-10-21T21:09:11.164Z,96.41
2023-10-21T21:11:40.155Z,96.44
2023-10-21T21:14:09.099Z,96.77
2023-10-21T21:16:38.820Z,96.63
2023-10-21T21:19:08.579Z,97.05
2023-10-21T21:21:37.379Z,96.93
2023-10-21T21:24:07.609Z,96.76
2023-10-21T21:26:37.952Z,96.90
2023-10-21T21:29:07.081Z,97.08
2023-10-21T21:31:35.864Z,97.36
2023-10-21T21:34:05.733Z,97.20
2023-10-21T21:36:34.564Z,97.11
2023-10-21T21:39:03.373Z,97.03
2023-10-21T21:41:32.200Z,97.36
2023-10-21T21:44:02.479Z,97.35
2023-10-21T21:46:31.530Z,97.25
2023-10-21T21:49:00.924Z,97.15
2023-10-21T21:51:30.298Z,97.19
2023-10-21T21:53:59.838Z,97.28
2023-10-21T21:56:29.074Z,97.31
2023-10-21T21:58:58.229Z,97.20
2023-10-21T22:01:29.304Z,97.33
2023-10-21T22:03:58.502Z,97.63
2023-10-21T22:06:27.875Z,97.79
2023-10-21T22:08:57.872Z,98.03
2023-10-21T22:11:27.163Z,97.88
2023-10-21T22:13:57.873Z,97.82
2023-10-21T22:16:28.906Z,97.88
2023-10-21T22:18:57.792Z,98.44
2023-10-21T22:21:26.478Z,98.48
2023-10-21T22:24:02.101Z,98.30
2023-10-21T22:26:31.670Z,98.83
2023-10-21T22:29:02.622Z,99.16
2023-10-21T22:31:33.245Z,99.50
2023-10-21T22:34:02.093Z,99.58
2023-10-21T22:36:30.866Z,99.43
2023-10-21T22:38:59.589Z,100.00
2023-10-21T22:41:28.851Z,100.00
2023-10-21T22:43:58.214Z,100.00
2023-10-21T22:46:27.044Z,100.00
2023-10-21T22:48:59.191Z,100.00
2023-10-21T22:51:27.992Z,100.00
2023-10-21T22:53:57.570Z,100.00
2023-10-21T22:56:26.300Z,100.00
2023-10-21T22:58:54.977Z,100.00
2023-10-21T23:01:24.264Z,100.00
2023-10-21T23:03:53.886Z,100.00
2023-10-21T23:06:24.689Z,100.00
2023-10-21T23:08:54.973Z,100.00
2023-10-21T23:11:24.200Z,100.00
2023-10-21T23:13:53.682Z,100.00
2023-10-21T23:16:23.689Z,100.00
2023-10-21T23:18:52.514Z,100.00
2023-10-21T23:21:21.269Z,100.00
2023-10-21T23:23:51.427Z,100.00
2023-10-21T23:26:20.464Z,100.00
2023-10-21T23:28:49.243Z,100.00
2023-10-21T23:31:17.919Z,100.00
2023-10-21T23:33:46.659Z,100.00
2023-10-21T23:36:15.372Z,100.00
2023-10-21T23:38:44.140Z,100.00
2023-10-21T23:41:16.211Z,100.00
2023-10-21T23:43:44.859Z,100.00
2023-10-21T23:46:14.736Z,100.00
2023-10-21T23:48:43.709Z,100.00
2023-10-21T23:51:12.638Z,100.00
2023-10-21T23:53:41.580Z,100.00
2023-10-21T23:56:10.323Z,100.00
2023-10-21T23:58:40.378Z,100.00
